Alto Crest, New Mexico
Current Conditions -  °F | °C
As of 12:15 AM on Saturday 29 Nov 2014 (Local Time) from KSRR Reporting Station
Clear Clear  
Wind Chill:   Ceiling: Unl
Heat Index:   Visibility: 10mi
Dew Point: -9°   Wind: 6mph
Humidity: 39%   Direction: 250°WSW
Pressure: 30.13"   Gusts: NA
Location:  33.3909°N, 105.634°W
Report Text: KSRR 290715Z AUTO 25005KT 10SM CLR 04/M09 A3013 RMK AO2
Loading
Personal Weather Stations






























Interactive Weather Map New forecast layout! Learn more

10-Day Weather Forecast

Advertisements
Track Severe Weather on mobile